createdAt,value
2023-02-15T00:01:58.677Z,50.22
2023-02-15T00:04:02.876Z,42.30
2023-02-15T00:06:05.663Z,43.83
2023-02-15T00:08:08.195Z,50.63
2023-02-15T00:10:12.938Z,38.80
2023-02-15T00:12:16.846Z,38.53
2023-02-15T00:14:21.640Z,39.33
2023-02-15T00:16:24.246Z,45.13
2023-02-15T00:18:26.841Z,45.58
2023-02-15T00:20:30.751Z,43.60
2023-02-15T00:22:33.288Z,40.65
2023-02-15T00:24:35.858Z,40.08
2023-02-15T00:26:40.099Z,40.63
2023-02-15T00:28:42.624Z,40.50
2023-02-15T00:30:45.200Z,39.70
2023-02-15T00:32:49.630Z,38.53
2023-02-15T00:34:52.390Z,37.05
2023-02-15T00:36:56.572Z,43.50
2023-02-15T00:38:59.217Z,38.05
2023-02-15T00:41:03.749Z,36.17
2023-02-15T00:43:06.338Z,34.15
2023-02-15T00:45:10.045Z,36.40
2023-02-15T00:47:12.615Z,34.85
2023-02-15T00:49:15.183Z,38.20
2023-02-15T00:51:18.298Z,36.83
2023-02-15T00:53:23.142Z,37.40
2023-02-15T00:55:25.699Z,36.97
2023-02-15T00:57:28.248Z,34.92
2023-02-15T00:59:30.795Z,35.90
2023-02-15T01:01:33.467Z,38.20
2023-02-15T01:03:36.232Z,35.38
2023-02-15T01:05:39.054Z,34.90
2023-02-15T01:07:41.673Z,39.03
2023-02-15T01:09:45.577Z,40.67
2023-02-15T01:11:48.122Z,33.97
2023-02-15T01:13:51.551Z,34.78
2023-02-15T01:15:56.396Z,34.15
2023-02-15T01:17:59.092Z,35.80
2023-02-15T01:20:01.660Z,35.03
2023-02-15T01:22:04.484Z,35.97
2023-02-15T01:24:07.431Z,36.47
2023-02-15T01:26:12.142Z,34.50
2023-02-15T01:28:14.723Z,36.92
2023-02-15T01:30:20.609Z,40.22
2023-02-15T01:32:23.354Z,34.80
2023-02-15T01:34:26.024Z,38.00
2023-02-15T01:36:28.686Z,37.70
2023-02-15T01:38:31.286Z,34.42
2023-02-15T01:40:33.815Z,35.70
2023-02-15T01:42:37.864Z,32.13
2023-02-15T01:44:52.575Z,35.03
2023-02-15T01:46:55.641Z,41.70
2023-02-15T01:49:03.424Z,45.92
2023-02-15T01:51:06.001Z,35.83
2023-02-15T01:53:15.251Z,37.97
2023-02-15T01:55:18.173Z,36.63
2023-02-15T01:57:25.861Z,35.30
2023-02-15T01:59:30.372Z,33.42
2023-02-15T02:01:33.037Z,33.22
2023-02-15T02:03:44.077Z,33.42
2023-02-15T02:05:46.639Z,36.55
2023-02-15T02:07:52.254Z,32.97
2023-02-15T02:09:54.804Z,32.60
2023-02-15T02:11:57.540Z,36.42
2023-02-15T02:14:00.317Z,32.20
2023-02-15T02:16:12.857Z,37.20
2023-02-15T02:18:27.458Z,34.88
2023-02-15T02:21:02.699Z,28.15
2023-02-15T02:23:25.990Z,33.42
2023-02-15T02:25:48.329Z,34.38
2023-02-15T02:27:58.575Z,32.88
2023-02-15T02:31:02.166Z,32.28
2023-02-15T02:33:27.227Z,31.90
2023-02-15T02:35:35.897Z,33.00
2023-02-15T02:38:03.000Z,29.98
2023-02-15T02:40:13.559Z,30.50
2023-02-15T02:42:24.106Z,34.63
2023-02-15T02:44:31.423Z,33.67
2023-02-15T02:46:38.945Z,31.65
2023-02-15T02:48:43.174Z,33.20
2023-02-15T02:50:45.729Z,31.38
2023-02-15T02:52:50.569Z,31.88
2023-02-15T02:54:53.204Z,33.13
2023-02-15T02:56:58.381Z,32.08
2023-02-15T02:59:07.632Z,36.63
2023-02-15T03:01:16.660Z,28.15
2023-02-15T03:03:25.427Z,32.60
2023-02-15T03:05:31.708Z,33.88
2023-02-15T03:07:37.655Z,31.20
2023-02-15T03:09:43.542Z,30.17
2023-02-15T03:11:47.151Z,32.53
2023-02-15T03:13:50.979Z,27.95
2023-02-15T03:16:14.764Z,32.47
2023-02-15T03:18:19.926Z,30.67
2023-02-15T03:20:26.408Z,35.08
2023-02-15T03:22:36.682Z,32.35
2023-02-15T03:24:43.611Z,36.38
2023-02-15T03:26:49.649Z,32.08
2023-02-15T03:28:54.775Z,32.13
2023-02-15T03:31:02.164Z,37.08
2023-02-15T03:33:06.512Z,32.58
2023-02-15T03:35:09.757Z,35.92
2023-02-15T03:37:17.776Z,32.25
2023-02-15T03:39:24.662Z,34.70
2023-02-15T03:41:28.741Z,33.97
2023-02-15T03:43:39.988Z,35.13
2023-02-15T03:45:55.821Z,34.63
2023-02-15T03:48:01.371Z,33.63
2023-02-15T03:50:28.528Z,34.90
2023-02-15T03:52:33.055Z,35.30
2023-02-15T03:54:44.277Z,32.00
2023-02-15T03:57:06.993Z,36.50
2023-02-15T03:59:27.363Z,35.63
2023-02-15T04:01:54.505Z,31.08
2023-02-15T04:04:02.166Z,37.08
2023-02-15T04:06:05.271Z,38.63
2023-02-15T04:08:08.298Z,32.58
2023-02-15T04:10:29.822Z,38.17
2023-02-15T04:12:32.761Z,33.45
2023-02-15T04:14:53.340Z,31.98
2023-02-15T04:16:55.967Z,35.60
2023-02-15T04:19:16.067Z,32.85
2023-02-15T04:21:36.463Z,32.22
2023-02-15T04:23:56.420Z,37.78
2023-02-15T04:26:00.751Z,35.25
2023-02-15T04:28:03.498Z,32.88
2023-02-15T04:30:07.624Z,33.63
2023-02-15T04:32:10.294Z,31.10
2023-02-15T04:34:12.862Z,33.63
2023-02-15T04:36:15.390Z,31.38
2023-02-15T04:38:17.985Z,36.00
2023-02-15T04:40:20.737Z,36.20
2023-02-15T04:42:24.659Z,36.00
2023-02-15T04:44:27.196Z,36.47
2023-02-15T04:46:30.357Z,32.75
2023-02-15T04:48:33.759Z,35.53
2023-02-15T04:50:36.282Z,33.67
2023-02-15T04:52:39.117Z,31.52
2023-02-15T04:54:41.786Z,36.35
2023-02-15T04:56:44.489Z,35.45
2023-02-15T04:58:48.695Z,32.83
2023-02-15T05:00:51.304Z,33.63
2023-02-15T05:02:53.866Z,30.98
2023-02-15T05:04:56.441Z,30.10
2023-02-15T05:06:59.010Z,31.40
2023-02-15T05:09:01.550Z,36.17
2023-02-15T05:11:04.224Z,38.88
2023-02-15T05:13:06.797Z,34.53
2023-02-15T05:15:11.182Z,33.47
2023-02-15T05:17:13.728Z,35.50
2023-02-15T05:19:16.403Z,29.58
2023-02-15T05:21:19.029Z,35.95
2023-02-15T05:23:21.606Z,33.38
2023-02-15T05:25:41.941Z,34.97
2023-02-15T05:28:03.831Z,27.23
2023-02-15T05:30:12.460Z,30.05
2023-02-15T05:32:18.924Z,32.20
2023-02-15T05:34:21.528Z,29.85
2023-02-15T05:36:24.074Z,34.13
2023-02-15T05:38:26.797Z,37.25
2023-02-15T05:40:29.378Z,31.15
2023-02-15T05:42:31.946Z,31.88
2023-02-15T05:44:34.528Z,32.13
2023-02-15T05:46:37.130Z,32.25
2023-02-15T05:48:41.092Z,31.70
2023-02-15T05:50:43.730Z,32.03
2023-02-15T05:52:46.332Z,32.35
2023-02-15T05:54:48.948Z,34.75
2023-02-15T05:56:51.478Z,28.02
2023-02-15T05:58:57.033Z,36.42
2023-02-15T06:00:59.665Z,30.13
2023-02-15T06:03:02.203Z,32.50
2023-02-15T06:05:07.388Z,28.45
2023-02-15T06:07:09.942Z,30.05
2023-02-15T06:09:12.942Z,33.72
2023-02-15T06:11:15.526Z,32.08
2023-02-15T06:13:18.101Z,45.25
2023-02-15T06:15:20.915Z,43.50
2023-02-15T06:17:23.497Z,40.05
2023-02-15T06:19:26.155Z,40.05
2023-02-15T06:21:30.424Z,43.65
2023-02-15T06:23:33.118Z,36.58
2023-02-15T06:25:36.634Z,42.55
2023-02-15T06:27:43.214Z,37.80
2023-02-15T06:29:45.814Z,47.60
2023-02-15T06:31:50.808Z,36.97
2023-02-15T06:33:53.510Z,36.15
2023-02-15T06:35:56.057Z,40.63
2023-02-15T06:37:59.959Z,43.33
2023-02-15T06:40:03.976Z,38.45
2023-02-15T06:42:06.718Z,38.50
2023-02-15T06:44:09.548Z,40.35
2023-02-15T06:46:12.152Z,43.78
2023-02-15T06:48:15.107Z,40.13
2023-02-15T06:50:18.008Z,42.35
2023-02-15T06:52:20.578Z,40.42
2023-02-15T06:54:24.533Z,43.65
2023-02-15T06:56:27.140Z,41.80
2023-02-15T06:58:29.708Z,42.70
2023-02-15T07:00:32.372Z,40.47
2023-02-15T07:02:35.199Z,37.40
2023-02-15T07:04:37.834Z,44.53
2023-02-15T07:06:41.636Z,42.15
2023-02-15T07:08:44.161Z,45.30
2023-02-15T07:10:48.034Z,43.30
2023-02-15T07:12:49.627Z,41.38
2023-02-15T07:16:54.704Z,37.20
2023-02-15T07:18:57.290Z,46.40
2023-02-15T07:20:59.857Z,41.78
2023-02-15T07:23:02.442Z,40.80
2023-02-15T07:25:05.467Z,38.63
2023-02-15T07:27:09.807Z,46.83
2023-02-15T07:29:12.363Z,33.15
2023-02-15T07:31:14.940Z,34.22
2023-02-15T07:33:27.962Z,34.50
2023-02-15T07:35:30.559Z,30.52
2023-02-15T07:37:33.111Z,34.97
2023-02-15T07:39:35.656Z,27.27
2023-02-15T07:41:38.489Z,26.95
2023-02-15T07:43:44.363Z,26.10
2023-02-15T07:45:46.944Z,28.20
2023-02-15T07:47:49.537Z,26.27
2023-02-15T07:49:52.141Z,24.05
2023-02-15T07:51:54.719Z,27.17
2023-02-15T07:53:57.331Z,26.85
2023-02-15T07:56:01.102Z,24.77
2023-02-15T07:58:03.918Z,24.80
2023-02-15T08:00:09.337Z,25.80
2023-02-15T08:02:12.646Z,21.73
2023-02-15T08:04:15.243Z,24.83
2023-02-15T08:06:18.638Z,25.13
2023-02-15T08:08:31.481Z,25.70
2023-02-15T08:10:47.998Z,25.10
2023-02-15T08:12:50.558Z,26.30
2023-02-15T08:14:53.150Z,26.00
2023-02-15T08:16:57.857Z,27.33
2023-02-15T08:19:02.382Z,32.05
2023-02-15T08:21:05.801Z,24.08
2023-02-15T08:23:08.355Z,26.63
2023-02-15T08:25:10.922Z,25.95
2023-02-15T08:27:13.604Z,25.70
2023-02-15T08:29:17.236Z,29.27
2023-02-15T08:31:20.203Z,27.60
2023-02-15T08:33:24.203Z,29.67
2023-02-15T08:35:26.738Z,28.13
2023-02-15T08:37:29.256Z,35.17
2023-02-15T08:39:31.942Z,31.23
2023-02-15T08:41:36.896Z,30.40
2023-02-15T08:43:39.828Z,26.17
2023-02-15T08:45:43.401Z,28.83
2023-02-15T08:47:48.139Z,27.05
2023-02-15T08:49:52.313Z,25.50
2023-02-15T08:51:54.926Z,24.17
2023-02-15T08:53:59.206Z,26.88
2023-02-15T08:56:01.981Z,26.13
2023-02-15T08:58:04.555Z,31.10
2023-02-15T09:00:08.557Z,30.35
2023-02-15T09:02:12.139Z,27.25
2023-02-15T09:04:16.617Z,25.88
2023-02-15T09:06:21.391Z,29.35
2023-02-15T09:08:23.938Z,34.15
2023-02-15T09:10:26.527Z,32.22
2023-02-15T09:12:29.114Z,33.03
2023-02-15T09:14:31.711Z,35.15
2023-02-15T09:16:36.957Z,32.13
2023-02-15T09:18:40.842Z,31.33
2023-02-15T09:20:43.364Z,36.83
2023-02-15T09:22:47.276Z,35.05
2023-02-15T09:24:49.817Z,30.65
2023-02-15T09:26:52.385Z,31.63
2023-02-15T09:28:57.381Z,28.92
2023-02-15T09:31:07.059Z,30.98
2023-02-15T09:33:09.603Z,27.83
2023-02-15T09:35:13.517Z,27.30
2023-02-15T09:37:16.261Z,27.13
2023-02-15T09:39:22.110Z,28.73
2023-02-15T09:42:17.000Z,28.80
2023-02-15T09:44:29.921Z,28.98
2023-02-15T09:46:51.074Z,34.10
2023-02-15T09:49:00.751Z,31.87
2023-02-15T09:51:22.542Z,29.30
2023-02-15T09:53:37.874Z,32.63
2023-02-15T09:55:53.215Z,29.13
2023-02-15T09:58:07.489Z,39.53
2023-02-15T10:00:18.471Z,33.58
2023-02-15T10:02:36.866Z,29.73
2023-02-15T10:04:56.473Z,28.70
2023-02-15T10:07:10.486Z,26.92
2023-02-15T10:09:35.026Z,31.05
2023-02-15T10:11:54.441Z,28.90
2023-02-15T10:14:11.231Z,26.70
2023-02-15T10:16:26.909Z,33.53
2023-02-15T10:18:45.686Z,31.52
2023-02-15T10:20:58.592Z,27.83
2023-02-15T10:23:24.261Z,31.95
2023-02-15T10:25:34.194Z,36.08
2023-02-15T10:27:43.496Z,33.85
2023-02-15T10:29:55.265Z,32.10
2023-02-15T10:34:17.144Z,33.38
2023-02-15T10:36:34.632Z,35.42
2023-02-15T10:38:44.356Z,36.08
2023-02-15T10:41:00.877Z,37.88
2023-02-15T10:43:22.475Z,37.53
2023-02-15T10:45:33.537Z,32.33
2023-02-15T10:48:08.501Z,33.33
2023-02-15T10:50:27.428Z,31.85
2023-02-15T10:52:44.232Z,34.35
2023-02-15T10:54:55.966Z,30.95
2023-02-15T10:57:07.019Z,31.02
2023-02-15T10:59:25.866Z,37.20
2023-02-15T11:01:36.758Z,30.73
2023-02-15T11:03:58.997Z,32.17
2023-02-15T11:06:06.596Z,34.55
2023-02-15T11:08:12.831Z,29.65
2023-02-15T11:10:27.572Z,29.92
2023-02-15T11:12:33.121Z,34.10
2023-02-15T11:14:42.994Z,31.88
2023-02-15T11:16:48.869Z,31.25
2023-02-15T11:18:57.243Z,30.00
2023-02-15T11:21:04.349Z,30.30
2023-02-15T11:23:17.375Z,28.98
2023-02-15T11:25:24.416Z,30.88
2023-02-15T11:27:31.379Z,31.75
2023-02-15T11:29:39.655Z,25.73
2023-02-15T11:31:46.775Z,26.77
2023-02-15T11:33:54.403Z,26.33
2023-02-15T11:36:02.603Z,28.02
2023-02-15T11:38:14.604Z,28.70
2023-02-15T11:40:23.216Z,27.20
2023-02-15T11:42:27.584Z,33.08
2023-02-15T11:44:34.600Z,27.40
2023-02-15T11:46:39.304Z,25.20
2023-02-15T11:48:43.175Z,28.27
2023-02-15T11:50:46.549Z,25.90
2023-02-15T11:52:49.119Z,30.23
2023-02-15T11:54:54.326Z,24.98
2023-02-15T11:57:02.161Z,23.13
2023-02-15T11:59:12.508Z,29.52
2023-02-15T12:01:22.249Z,28.83
2023-02-15T12:03:31.883Z,32.28
2023-02-15T12:05:38.069Z,24.27
2023-02-15T12:07:46.901Z,30.98
2023-02-15T12:09:54.915Z,23.05
2023-02-15T12:12:25.025Z,28.55
2023-02-15T12:14:27.690Z,22.88
2023-02-15T12:16:33.977Z,23.35
2023-02-15T12:18:40.824Z,22.52
2023-02-15T12:20:44.439Z,22.45
2023-02-15T12:22:50.722Z,25.88
2023-02-15T12:24:56.218Z,20.90
2023-02-15T12:27:01.877Z,30.13
2023-02-15T12:29:14.779Z,22.83
2023-02-15T12:31:24.092Z,25.17
2023-02-15T12:33:32.308Z,21.02
2023-02-15T12:35:38.830Z,20.92
2023-02-15T12:37:54.015Z,21.92
2023-02-15T12:39:58.873Z,18.10
2023-02-15T12:42:05.371Z,19.30
2023-02-15T12:44:17.302Z,17.42
2023-02-15T12:46:24.965Z,15.30
2023-02-15T12:48:27.625Z,18.42
2023-02-15T12:50:35.180Z,15.50
2023-02-15T12:52:40.156Z,14.05
2023-02-15T12:54:44.859Z,19.77
2023-02-15T12:56:47.587Z,18.55
2023-02-15T12:59:01.648Z,19.27
2023-02-15T13:01:11.879Z,16.27
2023-02-15T13:03:19.909Z,17.30
2023-02-15T13:05:28.486Z,15.18
2023-02-15T13:07:33.864Z,13.25
2023-02-15T13:09:40.532Z,17.45
2023-02-15T13:11:45.199Z,14.85
2023-02-15T13:13:53.876Z,15.07
2023-02-15T13:16:00.153Z,17.25
2023-02-15T13:18:04.475Z,13.38
2023-02-15T13:20:18.775Z,15.85
2023-02-15T13:22:25.653Z,15.98
2023-02-15T13:24:31.681Z,16.90
2023-02-15T13:26:37.269Z,17.40
2023-02-15T13:28:44.930Z,21.98
2023-02-15T13:30:49.705Z,14.48
2023-02-15T13:32:56.571Z,16.60
2023-02-15T13:35:00.931Z,17.48
2023-02-15T13:37:10.188Z,17.30
2023-02-15T13:39:25.387Z,24.67
2023-02-15T13:41:36.280Z,20.95
2023-02-15T13:43:53.249Z,20.58
2023-02-15T13:46:09.959Z,23.08
2023-02-15T13:48:21.883Z,24.88
2023-02-15T13:52:49.758Z,26.08
2023-02-15T13:55:23.085Z,24.90
2023-02-15T13:57:46.803Z,23.67
2023-02-15T14:00:02.930Z,22.48
2023-02-15T14:02:32.267Z,22.10
2023-02-15T14:04:55.239Z,25.90
2023-02-15T14:07:18.635Z,26.83
2023-02-15T14:09:32.968Z,18.95
2023-02-15T14:11:43.921Z,17.40
2023-02-15T14:14:33.944Z,18.07
2023-02-15T14:17:04.344Z,19.42
2023-02-15T14:19:22.025Z,18.40
2023-02-15T14:21:32.529Z,14.98
2023-02-15T14:23:45.833Z,20.42
2023-02-15T14:25:56.511Z,16.70
2023-02-15T14:28:08.808Z,17.60
2023-02-15T14:30:19.883Z,15.95
2023-02-15T14:32:30.065Z,13.95
2023-02-15T14:34:44.084Z,22.45
2023-02-15T14:36:46.827Z,16.52
2023-02-15T14:38:58.556Z,16.50
2023-02-15T14:41:08.125Z,20.13
2023-02-15T14:43:17.533Z,13.77
2023-02-15T14:45:24.881Z,21.45
2023-02-15T14:47:33.999Z,23.17
2023-02-15T14:49:39.953Z,17.35
2023-02-15T14:52:02.750Z,14.93
2023-02-15T14:54:05.326Z,18.95
2023-02-15T14:56:18.434Z,20.42
2023-02-15T14:58:21.036Z,16.85
2023-02-15T15:00:41.791Z,16.67
2023-02-15T15:02:49.852Z,14.82
2023-02-15T15:05:04.094Z,12.70
2023-02-15T15:07:18.116Z,15.30
2023-02-15T15:09:24.503Z,17.40
2023-02-15T15:11:54.796Z,16.48
2023-02-15T15:13:58.886Z,17.50
2023-02-15T15:16:29.730Z,17.77
2023-02-15T15:18:48.367Z,13.35
2023-02-15T15:20:52.107Z,17.73
2023-02-15T15:23:40.798Z,15.93
2023-02-15T15:25:46.386Z,13.07
2023-02-15T15:27:54.887Z,16.75
2023-02-15T15:29:57.526Z,14.82
2023-02-15T15:32:03.321Z,17.17
2023-02-15T15:34:31.716Z,15.98
2023-02-15T15:37:05.845Z,16.27
2023-02-15T15:39:23.846Z,14.57
2023-02-15T15:41:42.913Z,14.00
2023-02-15T15:44:33.144Z,19.00
2023-02-15T15:47:03.269Z,19.10
2023-02-15T15:49:10.624Z,14.85
2023-02-15T15:51:19.732Z,17.77
2023-02-15T15:53:25.107Z,17.38
2023-02-15T15:55:32.371Z,19.90
2023-02-15T15:57:37.971Z,17.10
2023-02-15T15:59:47.037Z,18.30
2023-02-15T16:01:50.899Z,22.60
2023-02-15T16:03:55.562Z,17.65
2023-02-15T16:06:01.523Z,19.38
2023-02-15T16:08:07.276Z,20.60
2023-02-15T16:10:23.172Z,17.67
2023-02-15T16:12:27.762Z,21.10
2023-02-15T16:14:32.878Z,16.58
2023-02-15T16:16:35.685Z,16.75
2023-02-15T16:18:43.228Z,22.17
2023-02-15T16:20:53.914Z,23.25
2023-02-15T16:23:11.570Z,18.77
2023-02-15T16:25:33.323Z,18.42
2023-02-15T16:27:38.371Z,18.48
2023-02-15T16:29:40.948Z,27.75
2023-02-15T16:31:43.665Z,21.42
2023-02-15T16:33:47.401Z,25.92
2023-02-15T16:35:56.543Z,20.05
2023-02-15T16:37:59.142Z,23.60
2023-02-15T16:40:03.440Z,32.28
2023-02-15T16:42:06.418Z,22.67
2023-02-15T16:44:18.129Z,26.75
2023-02-15T16:46:26.526Z,36.00
2023-02-15T16:48:29.657Z,31.02
2023-02-15T16:50:35.457Z,30.35
2023-02-15T16:52:38.022Z,21.25
2023-02-15T16:54:44.553Z,34.88
2023-02-15T16:56:48.902Z,30.23
2023-02-15T16:58:54.598Z,26.40
2023-02-15T17:00:59.692Z,25.63
2023-02-15T17:03:05.926Z,31.52
2023-02-15T17:05:18.447Z,27.45
2023-02-15T17:07:22.561Z,26.92
2023-02-15T17:09:26.354Z,28.52
2023-02-15T17:11:37.336Z,38.55
2023-02-15T17:13:41.683Z,25.37
2023-02-15T17:15:46.480Z,36.70
2023-02-15T17:17:49.965Z,30.02
2023-02-15T17:19:56.093Z,27.10
2023-02-15T17:22:02.326Z,32.33
2023-02-15T17:24:06.118Z,25.90
2023-02-15T17:26:17.084Z,27.90
2023-02-15T17:28:21.716Z,34.00
2023-02-15T17:30:31.408Z,34.42
2023-02-15T17:32:36.999Z,31.70
2023-02-15T17:34:46.460Z,38.00
2023-02-15T17:37:00.249Z,38.63
2023-02-15T17:39:19.774Z,40.00
2023-02-15T17:41:22.387Z,41.58
2023-02-15T17:43:24.936Z,41.17
2023-02-15T17:45:35.049Z,44.47
2023-02-15T17:47:37.676Z,29.02
2023-02-15T17:49:40.325Z,35.13
2023-02-15T17:51:45.717Z,37.13
2023-02-15T17:54:03.372Z,39.50
2023-02-15T17:56:10.802Z,42.67
2023-02-15T17:58:14.917Z,41.00
2023-02-15T18:00:35.982Z,98.05
2023-02-15T18:02:58.081Z,100.93
2023-02-15T18:05:18.293Z,101.82
2023-02-15T18:07:38.721Z,112.40
2023-02-15T18:09:58.879Z,99.93
2023-02-15T18:12:02.007Z,95.07
2023-02-15T18:14:05.248Z,92.78
2023-02-15T18:16:14.449Z,63.60
2023-02-15T18:18:18.351Z,61.63
2023-02-15T18:20:24.292Z,52.10
2023-02-15T18:22:30.592Z,49.88
2023-02-15T18:24:33.332Z,62.72
2023-02-15T18:26:35.926Z,67.75
2023-02-15T18:28:38.460Z,56.60
2023-02-15T18:30:42.534Z,54.08
2023-02-15T18:32:46.706Z,44.90
2023-02-15T18:34:52.178Z,53.00
2023-02-15T18:36:55.544Z,61.58
2023-02-15T18:38:58.288Z,73.72
2023-02-15T18:41:03.451Z,63.40
2023-02-15T18:43:06.311Z,59.45
2023-02-15T18:45:16.814Z,42.13
2023-02-15T18:47:19.493Z,48.42
2023-02-15T18:49:22.110Z,48.08
2023-02-15T18:51:26.012Z,57.33
2023-02-15T18:53:28.628Z,48.72
2023-02-15T18:55:32.461Z,53.70
2023-02-15T18:57:35.200Z,50.63
2023-02-15T18:59:37.751Z,57.65
2023-02-15T19:01:40.301Z,51.70
2023-02-15T19:03:42.873Z,58.67
2023-02-15T19:05:47.687Z,50.22
2023-02-15T19:07:52.451Z,71.38
2023-02-15T19:09:57.491Z,68.20
2023-02-15T19:12:00.415Z,71.35
2023-02-15T19:14:03.019Z,68.03
2023-02-15T19:16:06.455Z,74.07
2023-02-15T19:18:09.035Z,79.97
2023-02-15T19:20:17.446Z,66.75
2023-02-15T19:22:26.149Z,56.10
2023-02-15T19:24:38.137Z,60.47
2023-02-15T19:26:45.947Z,60.50
2023-02-15T19:28:48.790Z,53.80
2023-02-15T19:30:51.380Z,49.75
2023-02-15T19:32:54.017Z,54.67
2023-02-15T19:34:56.561Z,52.80
2023-02-15T19:36:59.205Z,61.80
2023-02-15T19:39:01.791Z,61.08
2023-02-15T19:41:10.141Z,51.67
2023-02-15T19:43:17.512Z,42.92
2023-02-15T19:45:22.618Z,57.33
2023-02-15T19:47:27.049Z,64.78
2023-02-15T19:49:29.844Z,60.97
2023-02-15T19:51:34.017Z,54.67
2023-02-15T19:53:39.520Z,48.90
2023-02-15T19:55:42.115Z,59.35
2023-02-15T19:57:46.020Z,50.92
2023-02-15T19:59:49.301Z,56.67
2023-02-15T20:01:52.342Z,56.00
2023-02-15T20:03:55.574Z,62.08
2023-02-15T20:05:58.101Z,55.00
2023-02-15T20:08:03.958Z,69.50
2023-02-15T20:10:15.893Z,66.65
2023-02-15T20:14:26.348Z,65.10
2023-02-15T20:16:29.705Z,69.45
2023-02-15T20:18:32.352Z,67.65
2023-02-15T20:20:40.518Z,69.28
2023-02-15T20:22:45.102Z,74.57
2023-02-15T20:24:47.647Z,80.55
2023-02-15T20:26:50.460Z,70.82
2023-02-15T20:28:53.041Z,85.10
2023-02-15T20:30:58.207Z,71.88
2023-02-15T20:33:00.786Z,59.50
2023-02-15T20:35:03.886Z,55.25
2023-02-15T20:37:07.149Z,64.85
2023-02-15T20:39:16.270Z,51.03
2023-02-15T20:41:43.024Z,42.22
2023-02-15T20:43:45.603Z,44.78
2023-02-15T20:45:48.143Z,42.28
2023-02-15T20:47:53.637Z,38.63
2023-02-15T20:49:57.441Z,34.13
2023-02-15T20:52:19.201Z,32.75
2023-02-15T20:54:24.115Z,38.17
2023-02-15T20:56:26.676Z,32.20
2023-02-15T20:58:30.820Z,32.30
2023-02-15T21:00:33.647Z,30.67
2023-02-15T21:02:39.290Z,32.60
2023-02-15T21:04:43.308Z,37.63
2023-02-15T21:06:45.998Z,33.90
2023-02-15T21:08:48.585Z,31.80
2023-02-15T21:10:52.949Z,33.30
2023-02-15T21:12:57.063Z,31.02
2023-02-15T21:14:59.665Z,34.13
2023-02-15T21:17:02.252Z,36.85
2023-02-15T21:19:13.469Z,36.35
2023-02-15T21:21:23.459Z,36.28
2023-02-15T21:23:30.209Z,42.85
2023-02-15T21:25:35.471Z,39.97
2023-02-15T21:27:38.032Z,36.90
2023-02-15T21:29:40.584Z,33.63
2023-02-15T21:31:43.257Z,31.67
2023-02-15T21:33:45.971Z,38.25
2023-02-15T21:35:51.438Z,37.00
2023-02-15T21:37:55.507Z,35.55
2023-02-15T21:39:58.118Z,32.53
2023-02-15T21:42:18.110Z,40.22
2023-02-15T21:44:39.776Z,38.72
2023-02-15T21:47:00.207Z,33.28
2023-02-15T21:49:02.958Z,34.75
2023-02-15T21:51:37.921Z,37.47
2023-02-15T21:53:45.773Z,32.58
2023-02-15T21:55:48.349Z,51.10
2023-02-15T21:57:50.879Z,42.30
2023-02-15T21:59:53.433Z,38.17
2023-02-15T22:01:56.171Z,38.60
2023-02-15T22:04:00.006Z,36.97
2023-02-15T22:06:03.042Z,38.55
2023-02-15T22:08:12.849Z,35.97
2023-02-15T22:10:17.384Z,35.28
2023-02-15T22:12:21.200Z,38.13
2023-02-15T22:14:37.149Z,40.35
2023-02-15T22:16:42.085Z,37.47
2023-02-15T22:18:45.107Z,39.83
2023-02-15T22:20:48.251Z,40.25
2023-02-15T22:22:52.507Z,35.30
2023-02-15T22:24:55.075Z,34.60
2023-02-15T22:26:59.062Z,40.20
2023-02-15T22:29:01.713Z,36.30
2023-02-15T22:31:05.357Z,33.53
2023-02-15T22:33:23.344Z,41.08
2023-02-15T22:35:28.185Z,42.45
2023-02-15T22:37:30.792Z,32.92
2023-02-15T22:39:33.909Z,38.47
2023-02-15T22:41:36.442Z,39.85
2023-02-15T22:43:42.965Z,34.80
2023-02-15T22:45:45.636Z,34.92
2023-02-15T22:47:50.037Z,34.38
2023-02-15T22:49:53.241Z,34.17
2023-02-15T22:51:55.795Z,32.17
2023-02-15T22:53:58.326Z,31.52
2023-02-15T22:56:06.747Z,28.70
2023-02-15T22:58:17.260Z,29.73
2023-02-15T23:00:23.518Z,29.15
2023-02-15T23:02:29.356Z,35.65
2023-02-15T23:04:31.919Z,29.27
2023-02-15T23:06:37.531Z,31.95
2023-02-15T23:08:40.104Z,30.88
2023-02-15T23:10:44.938Z,32.22
2023-02-15T23:13:02.636Z,28.67
2023-02-15T23:15:07.196Z,32.08
2023-02-15T23:17:11.086Z,32.90
2023-02-15T23:19:16.139Z,30.50
2023-02-15T23:21:22.189Z,34.08
2023-02-15T23:23:31.817Z,29.38
2023-02-15T23:25:34.381Z,29.73
2023-02-15T23:27:54.494Z,28.80
2023-02-15T23:29:57.078Z,31.13
2023-02-15T23:31:59.808Z,26.60
2023-02-15T23:34:13.641Z,27.77
2023-02-15T23:36:26.620Z,32.88
2023-02-15T23:38:31.626Z,24.58
2023-02-15T23:40:51.822Z,29.55
2023-02-15T23:42:54.337Z,27.52
2023-02-15T23:44:57.444Z,34.47
2023-02-15T23:47:00.319Z,37.08
2023-02-15T23:49:14.643Z,35.78
2023-02-15T23:51:18.237Z,28.15
2023-02-15T23:53:20.790Z,31.50
2023-02-15T23:55:24.200Z,30.23
2023-02-15T23:57:26.736Z,34.90
2023-02-15T23:59:31.921Z,30.10
